sensor_id;sensor_type;location;lat;lon;timestamp;pressure;altitude;pressure_sealevel;temperature;humidity
72558;BME280;60583;50.094;8.748;2022-11-20T00:00:23;100149.44;;;2.85;86.43
72558;BME280;60583;50.094;8.748;2022-11-20T00:02:49;100138.59;;;2.88;86.33
72558;BME280;60583;50.094;8.748;2022-11-20T00:05:14;100143.88;;;2.88;86.22
72558;BME280;60583;50.094;8.748;2022-11-20T00:07:40;100145.00;;;2.85;86.06
72558;BME280;60583;50.094;8.748;2022-11-20T00:10:05;100152.28;;;2.91;85.80
72558;BME280;60583;50.094;8.748;2022-11-20T00:12:31;100141.69;;;2.83;85.69
72558;BME280;60583;50.094;8.748;2022-11-20T00:14:56;100149.44;;;2.85;85.70
72558;BME280;60583;50.094;8.748;2022-11-20T00:17:22;100150.31;;;2.93;85.55
72558;BME280;60583;50.094;8.748;2022-11-20T00:19:48;100149.66;;;2.91;85.73
72558;BME280;60583;50.094;8.748;2022-11-20T00:22:13;100140.75;;;2.84;86.09
72558;BME280;60583;50.094;8.748;2022-11-20T00:24:39;100144.53;;;2.90;86.25
72558;BME280;60583;50.094;8.748;2022-11-20T00:27:04;100150.63;;;2.90;85.62
72558;BME280;60583;50.094;8.748;2022-11-20T00:29:30;100151.63;;;2.89;85.75
72558;BME280;60583;50.094;8.748;2022-11-20T00:31:55;100143.91;;;2.96;85.71
72558;BME280;60583;50.094;8.748;2022-11-20T00:34:20;100147.56;;;3.03;85.83
72558;BME280;60583;50.094;8.748;2022-11-20T00:36:46;100145.16;;;2.84;86.05
72558;BME280;60583;50.094;8.748;2022-11-20T00:39:11;100138.19;;;2.75;86.28
72558;BME280;60583;50.094;8.748;2022-11-20T00:41:36;100142.31;;;2.77;86.72
72558;BME280;60583;50.094;8.748;2022-11-20T00:44:02;100141.53;;;2.85;86.12
72558;BME280;60583;50.094;8.748;2022-11-20T00:46:27;100134.28;;;2.79;85.64
72558;BME280;60583;50.094;8.748;2022-11-20T00:48:53;100138.91;;;2.85;85.31
72558;BME280;60583;50.094;8.748;2022-11-20T00:51:21;100127.66;;;2.75;85.43
72558;BME280;60583;50.094;8.748;2022-11-20T00:53:47;100122.59;;;2.81;85.51
72558;BME280;60583;50.094;8.748;2022-11-20T00:56:15;100114.34;;;2.76;85.77
72558;BME280;60583;50.094;8.748;2022-11-20T00:58:42;100117.09;;;2.67;85.78
72558;BME280;60583;50.094;8.748;2022-11-20T01:01:19;100125.22;;;2.55;86.82
72558;BME280;60583;50.094;8.748;2022-11-20T01:03:48;100124.56;;;2.53;86.73
72558;BME280;60583;50.094;8.748;2022-11-20T01:06:20;100132.19;;;2.65;86.29
72558;BME280;60583;50.094;8.748;2022-11-20T01:08:46;100124.34;;;2.73;86.62
72558;BME280;60583;50.094;8.748;2022-11-20T01:11:15;100116.81;;;2.78;87.10
72558;BME280;60583;50.094;8.748;2022-11-20T01:13:41;100120.13;;;2.80;86.36
72558;BME280;60583;50.094;8.748;2022-11-20T01:16:16;100129.00;;;2.79;85.75
72558;BME280;60583;50.094;8.748;2022-11-20T01:18:44;100130.44;;;2.73;86.42
72558;BME280;60583;50.094;8.748;2022-11-20T01:21:13;100123.38;;;2.74;87.07
72558;BME280;60583;50.094;8.748;2022-11-20T01:23:40;100118.72;;;2.68;87.50
72558;BME280;60583;50.094;8.748;2022-11-20T01:26:11;100123.53;;;2.72;86.91
72558;BME280;60583;50.094;8.748;2022-11-20T01:28:39;100123.38;;;2.74;87.38
72558;BME280;60583;50.094;8.748;2022-11-20T01:31:12;100126.16;;;2.72;87.60
72558;BME280;60583;50.094;8.748;2022-11-20T01:33:39;100129.97;;;2.78;87.47
72558;BME280;60583;50.094;8.748;2022-11-20T01:36:06;100125.44;;;2.62;87.40
72558;BME280;60583;50.094;8.748;2022-11-20T01:38:31;100129.56;;;2.65;87.38
72558;BME280;60583;50.094;8.748;2022-11-20T01:40:57;100128.88;;;2.63;88.29
72558;BME280;60583;50.094;8.748;2022-11-20T01:43:23;100119.41;;;2.70;88.75
72558;BME280;60583;50.094;8.748;2022-11-20T01:45:56;100118.97;;;2.82;87.54
72558;BME280;60583;50.094;8.748;2022-11-20T01:48:26;100110.59;;;2.79;87.80
72558;BME280;60583;50.094;8.748;2022-11-20T01:50:52;100122.09;;;2.78;87.45
72558;BME280;60583;50.094;8.748;2022-11-20T01:53:21;100102.31;;;2.74;87.56
72558;BME280;60583;50.094;8.748;2022-11-20T01:55:51;100108.91;;;2.78;87.45
72558;BME280;60583;50.094;8.748;2022-11-20T01:58:20;100105.78;;;2.74;88.44
72558;BME280;60583;50.094;8.748;2022-11-20T02:00:47;100102.16;;;2.75;88.39
72558;BME280;60583;50.094;8.748;2022-11-20T02:03:16;100102.81;;;2.69;89.21
72558;BME280;60583;50.094;8.748;2022-11-20T02:08:11;100110.34;;;2.64;88.67
72558;BME280;60583;50.094;8.748;2022-11-20T02:10:38;100093.03;;;2.62;88.62
72558;BME280;60583;50.094;8.748;2022-11-20T02:13:04;100104.44;;;2.70;89.75
72558;BME280;60583;50.094;8.748;2022-11-20T02:15:59;100097.19;;;2.72;89.43
72558;BME280;60583;50.094;8.748;2022-11-20T02:18:25;100087.16;;;2.68;89.82
72558;BME280;60583;50.094;8.748;2022-11-20T02:21:01;100098.34;;;2.70;89.80
72558;BME280;60583;50.094;8.748;2022-11-20T02:26:12;100115.44;;;2.66;90.09
72558;BME280;60583;50.094;8.748;2022-11-20T02:28:38;100113.00;;;2.72;90.15
72558;BME280;60583;50.094;8.748;2022-11-20T02:31:04;100098.56;;;2.76;89.77
72558;BME280;60583;50.094;8.748;2022-11-20T02:33:29;100091.50;;;2.77;89.91
72558;BME280;60583;50.094;8.748;2022-11-20T02:35:55;100089.16;;;2.74;90.51
72558;BME280;60583;50.094;8.748;2022-11-20T02:38:20;100085.16;;;2.62;90.68
72558;BME280;60583;50.094;8.748;2022-11-20T02:40:45;100090.59;;;2.68;90.77
72558;BME280;60583;50.094;8.748;2022-11-20T02:43:11;100083.78;;;2.57;90.50
72558;BME280;60583;50.094;8.748;2022-11-20T02:45:36;100085.59;;;2.57;91.06
72558;BME280;60583;50.094;8.748;2022-11-20T02:48:02;100075.47;;;2.44;91.46
72558;BME280;60583;50.094;8.748;2022-11-20T02:50:28;100076.47;;;2.43;91.53
72558;BME280;60583;50.094;8.748;2022-11-20T02:52:53;100099.69;;;2.48;92.08
72558;BME280;60583;50.094;8.748;2022-11-20T02:55:19;100093.41;;;2.41;92.77
72558;BME280;60583;50.094;8.748;2022-11-20T02:57:44;100097.22;;;2.46;92.15
72558;BME280;60583;50.094;8.748;2022-11-20T03:00:10;100096.09;;;2.49;92.77
72558;BME280;60583;50.094;8.748;2022-11-20T03:02:35;100091.03;;;2.55;92.33
72558;BME280;60583;50.094;8.748;2022-11-20T03:05:01;100102.88;;;2.59;91.84
72558;BME280;60583;50.094;8.748;2022-11-20T03:07:27;100100.94;;;2.62;91.49
72558;BME280;60583;50.094;8.748;2022-11-20T03:09:52;100110.63;;;2.61;91.45
72558;BME280;60583;50.094;8.748;2022-11-20T03:12:17;100101.59;;;2.64;91.41
72558;BME280;60583;50.094;8.748;2022-11-20T03:14:43;100103.59;;;2.70;91.49
72558;BME280;60583;50.094;8.748;2022-11-20T03:17:08;100090.41;;;2.62;90.49
72558;BME280;60583;50.094;8.748;2022-11-20T03:19:34;100095.50;;;2.63;90.74
72558;BME280;60583;50.094;8.748;2022-11-20T03:22:00;100073.50;;;2.64;90.77
72558;BME280;60583;50.094;8.748;2022-11-20T03:24:25;100066.63;;;2.71;90.73
72558;BME280;60583;50.094;8.748;2022-11-20T03:26:51;100066.69;;;2.53;90.98
72558;BME280;60583;50.094;8.748;2022-11-20T03:29:16;100071.63;;;2.56;90.44
72558;BME280;60583;50.094;8.748;2022-11-20T03:31:41;100081.47;;;2.54;91.08
72558;BME280;60583;50.094;8.748;2022-11-20T03:34:09;100086.06;;;2.52;91.37
72558;BME280;60583;50.094;8.748;2022-11-20T03:36:35;100087.72;;;2.53;90.65
72558;BME280;60583;50.094;8.748;2022-11-20T03:39:02;100064.94;;;2.36;90.72
72558;BME280;60583;50.094;8.748;2022-11-20T03:41:36;100090.34;;;2.53;90.60
72558;BME280;60583;50.094;8.748;2022-11-20T03:44:03;100093.47;;;2.49;90.17
72558;BME280;60583;50.094;8.748;2022-11-20T03:46:29;100078.84;;;2.54;90.17
72558;BME280;60583;50.094;8.748;2022-11-20T03:48:55;100074.88;;;2.50;90.76
72558;BME280;60583;50.094;8.748;2022-11-20T03:51:23;100079.66;;;2.55;90.33
72558;BME280;60583;50.094;8.748;2022-11-20T03:53:50;100085.41;;;2.50;90.47
72558;BME280;60583;50.094;8.748;2022-11-20T03:56:18;100087.50;;;2.47;90.82
72558;BME280;60583;50.094;8.748;2022-11-20T03:58:43;100081.75;;;2.43;90.88
72558;BME280;60583;50.094;8.748;2022-11-20T04:01:15;100076.78;;;2.40;91.52
72558;BME280;60583;50.094;8.748;2022-11-20T04:03:42;100078.75;;;2.38;91.48
72558;BME280;60583;50.094;8.748;2022-11-20T04:06:17;100078.00;;;2.28;91.14
72558;BME280;60583;50.094;8.748;2022-11-20T04:08:43;100053.34;;;2.29;91.09
72558;BME280;60583;50.094;8.748;2022-11-20T04:11:13;100059.91;;;2.25;90.58
72558;BME280;60583;50.094;8.748;2022-11-20T04:13:39;100054.47;;;2.01;90.75
72558;BME280;60583;50.094;8.748;2022-11-20T04:16:06;100071.22;;;2.00;90.91
72558;BME280;60583;50.094;8.748;2022-11-20T04:18:33;100081.88;;;1.99;90.95
72558;BME280;60583;50.094;8.748;2022-11-20T04:20:59;100077.66;;;2.06;90.86
72558;BME280;60583;50.094;8.748;2022-11-20T04:23:25;100067.22;;;2.14;90.89
72558;BME280;60583;50.094;8.748;2022-11-20T04:25:50;100062.72;;;2.32;90.70
72558;BME280;60583;50.094;8.748;2022-11-20T04:28:16;100076.25;;;2.37;91.00
72558;BME280;60583;50.094;8.748;2022-11-20T04:30:41;100062.78;;;2.40;91.32
72558;BME280;60583;50.094;8.748;2022-11-20T04:33:07;100058.38;;;2.40;90.39
72558;BME280;60583;50.094;8.748;2022-11-20T04:35:36;100058.19;;;2.16;90.13
72558;BME280;60583;50.094;8.748;2022-11-20T04:38:02;100062.56;;;2.08;90.42
72558;BME280;60583;50.094;8.748;2022-11-20T04:40:28;100052.81;;;2.00;91.67
72558;BME280;60583;50.094;8.748;2022-11-20T04:42:54;100068.19;;;2.13;92.37
72558;BME280;60583;50.094;8.748;2022-11-20T04:45:19;100063.91;;;2.12;91.50
72558;BME280;60583;50.094;8.748;2022-11-20T04:47:45;100068.47;;;2.27;90.98
72558;BME280;60583;50.094;8.748;2022-11-20T04:50:10;100054.19;;;2.30;90.96
72558;BME280;60583;50.094;8.748;2022-11-20T04:52:36;100065.81;;;2.27;92.01
72558;BME280;60583;50.094;8.748;2022-11-20T04:55:01;100054.91;;;2.40;91.79
72558;BME280;60583;50.094;8.748;2022-11-20T04:57:27;100052.00;;;2.25;91.10
72558;BME280;60583;50.094;8.748;2022-11-20T04:59:52;100055.59;;;2.24;91.49
72558;BME280;60583;50.094;8.748;2022-11-20T05:02:17;100048.25;;;2.28;92.21
72558;BME280;60583;50.094;8.748;2022-11-20T05:04:43;100041.38;;;2.35;91.94
72558;BME280;60583;50.094;8.748;2022-11-20T05:07:08;100039.75;;;2.34;91.47
72558;BME280;60583;50.094;8.748;2022-11-20T05:09:33;100047.47;;;2.35;91.05
72558;BME280;60583;50.094;8.748;2022-11-20T05:11:59;100047.78;;;2.32;91.55
72558;BME280;60583;50.094;8.748;2022-11-20T05:14:24;100045.00;;;2.34;91.25
72558;BME280;60583;50.094;8.748;2022-11-20T05:16:50;100042.75;;;2.39;91.11
72558;BME280;60583;50.094;8.748;2022-11-20T05:19:15;100052.22;;;2.32;91.32
72558;BME280;60583;50.094;8.748;2022-11-20T05:21:40;100052.06;;;2.33;91.18
72558;BME280;60583;50.094;8.748;2022-11-20T05:24:06;100048.50;;;2.42;91.12
72558;BME280;60583;50.094;8.748;2022-11-20T05:26:32;100041.81;;;2.48;90.43
72558;BME280;60583;50.094;8.748;2022-11-20T05:28:57;100045.09;;;2.50;90.53
72558;BME280;60583;50.094;8.748;2022-11-20T05:31:24;100045.22;;;2.40;91.07
72558;BME280;60583;50.094;8.748;2022-11-20T05:33:50;100046.34;;;2.38;90.77
72558;BME280;60583;50.094;8.748;2022-11-20T05:36:16;100041.91;;;2.38;91.20
72558;BME280;60583;50.094;8.748;2022-11-20T05:38:42;100029.91;;;2.36;91.89
72558;BME280;60583;50.094;8.748;2022-11-20T05:41:15;100038.81;;;2.43;92.28
72558;BME280;60583;50.094;8.748;2022-11-20T05:43:43;100043.91;;;2.44;92.65
72558;BME280;60583;50.094;8.748;2022-11-20T05:46:11;100044.91;;;2.43;92.63
72558;BME280;60583;50.094;8.748;2022-11-20T05:48:38;100043.00;;;2.53;92.17
72558;BME280;60583;50.094;8.748;2022-11-20T05:51:05;100041.50;;;2.51;91.73
72558;BME280;60583;50.094;8.748;2022-11-20T05:53:32;100049.75;;;2.56;91.60
72558;BME280;60583;50.094;8.748;2022-11-20T05:56:00;100052.84;;;2.51;91.66
72558;BME280;60583;50.094;8.748;2022-11-20T05:58:25;100046.28;;;2.55;91.79
72558;BME280;60583;50.094;8.748;2022-11-20T06:00:51;100052.88;;;2.59;91.71
72558;BME280;60583;50.094;8.748;2022-11-20T06:03:16;100034.16;;;2.63;91.91
72558;BME280;60583;50.094;8.748;2022-11-20T06:05:42;100046.03;;;2.67;91.95
72558;BME280;60583;50.094;8.748;2022-11-20T06:08:07;100040.41;;;2.62;91.79
72558;BME280;60583;50.094;8.748;2022-11-20T06:10:33;100041.97;;;2.46;92.64
72558;BME280;60583;50.094;8.748;2022-11-20T06:12:58;100029.91;;;2.36;92.42
72558;BME280;60583;50.094;8.748;2022-11-20T06:15:24;100039.59;;;2.35;92.96
72558;BME280;60583;50.094;8.748;2022-11-20T06:17:53;100045.88;;;2.42;93.18
72558;BME280;60583;50.094;8.748;2022-11-20T06:20:19;100031.44;;;2.46;92.61
72558;BME280;60583;50.094;8.748;2022-11-20T06:22:45;100043.78;;;2.46;92.68
72558;BME280;60583;50.094;8.748;2022-11-20T06:25:10;100051.25;;;2.58;92.13
72558;BME280;60583;50.094;8.748;2022-11-20T06:27:35;100041.38;;;2.61;91.60
72558;BME280;60583;50.094;8.748;2022-11-20T06:30:01;100049.31;;;2.69;91.45
72558;BME280;60583;50.094;8.748;2022-11-20T06:32:26;100043.59;;;2.73;91.64
72558;BME280;60583;50.094;8.748;2022-11-20T06:34:52;100039.47;;;2.71;91.20
72558;BME280;60583;50.094;8.748;2022-11-20T06:37:17;100036.72;;;2.46;91.82
72558;BME280;60583;50.094;8.748;2022-11-20T06:39:42;100026.22;;;2.54;92.07
72558;BME280;60583;50.094;8.748;2022-11-20T06:42:08;100041.63;;;2.49;92.67
72558;BME280;60583;50.094;8.748;2022-11-20T06:44:33;100053.28;;;2.39;92.56
72558;BME280;60583;50.094;8.748;2022-11-20T06:46:58;100047.91;;;2.48;92.28
72558;BME280;60583;50.094;8.748;2022-11-20T06:49:24;100032.53;;;2.36;93.36
72558;BME280;60583;50.094;8.748;2022-11-20T06:51:50;100051.19;;;2.50;93.27
72558;BME280;60583;50.094;8.748;2022-11-20T06:54:15;100053.88;;;2.58;92.84
72558;BME280;60583;50.094;8.748;2022-11-20T06:56:41;100060.47;;;2.63;91.98
72558;BME280;60583;50.094;8.748;2022-11-20T06:59:07;100061.09;;;2.56;92.41
72558;BME280;60583;50.094;8.748;2022-11-20T07:01:32;100061.56;;;2.52;92.20
72558;BME280;60583;50.094;8.748;2022-11-20T07:03:58;100047.22;;;2.46;92.34
72558;BME280;60583;50.094;8.748;2022-11-20T07:06:23;100043.31;;;2.50;92.40
72558;BME280;60583;50.094;8.748;2022-11-20T07:08:51;100048.72;;;2.49;92.54
72558;BME280;60583;50.094;8.748;2022-11-20T07:11:17;100050.22;;;2.51;92.79
72558;BME280;60583;50.094;8.748;2022-11-20T07:13:42;100042.53;;;2.32;93.38
72558;BME280;60583;50.094;8.748;2022-11-20T07:16:08;100045.00;;;2.34;93.27
72558;BME280;60583;50.094;8.748;2022-11-20T07:18:34;100056.34;;;2.34;93.80
72558;BME280;60583;50.094;8.748;2022-11-20T07:21:03;100039.66;;;2.43;92.96
72558;BME280;60583;50.094;8.748;2022-11-20T07:23:30;100048.19;;;2.45;92.51
72558;BME280;60583;50.094;8.748;2022-11-20T07:25:55;100046.75;;;2.51;92.31
72558;BME280;60583;50.094;8.748;2022-11-20T07:28:21;100046.66;;;2.35;92.57
72558;BME280;60583;50.094;8.748;2022-11-20T07:30:53;100042.16;;;2.27;92.77
72558;BME280;60583;50.094;8.748;2022-11-20T07:33:19;100041.13;;;2.20;93.60
72558;BME280;60583;50.094;8.748;2022-11-20T07:35:44;100047.41;;;2.27;93.86
72558;BME280;60583;50.094;8.748;2022-11-20T07:38:10;100048.78;;;2.31;93.48
72558;BME280;60583;50.094;8.748;2022-11-20T07:40:35;100047.47;;;2.35;93.37
72558;BME280;60583;50.094;8.748;2022-11-20T07:43:01;100050.78;;;2.37;93.34
72558;BME280;60583;50.094;8.748;2022-11-20T07:45:26;100041.91;;;2.38;93.82
72558;BME280;60583;50.094;8.748;2022-11-20T07:47:51;100037.56;;;2.29;93.35
72558;BME280;60583;50.094;8.748;2022-11-20T07:50:18;100040.47;;;2.18;94.13
72558;BME280;60583;50.094;8.748;2022-11-20T07:52:43;100052.97;;;2.24;94.29
72558;BME280;60583;50.094;8.748;2022-11-20T07:55:09;100052.06;;;2.33;94.29
72558;BME280;60583;50.094;8.748;2022-11-20T07:57:35;100047.84;;;2.40;93.84
72558;BME280;60583;50.094;8.748;2022-11-20T08:00:02;100060.69;;;2.43;93.57
72558;BME280;60583;50.094;8.748;2022-11-20T08:02:27;100055.53;;;2.34;94.42
72558;BME280;60583;50.094;8.748;2022-11-20T08:04:53;100056.41;;;2.42;93.88
72558;BME280;60583;50.094;8.748;2022-11-20T08:07:18;100065.97;;;2.43;94.44
72558;BME280;60583;50.094;8.748;2022-11-20T08:09:44;100062.19;;;2.46;94.24
72558;BME280;60583;50.094;8.748;2022-11-20T08:12:17;100066.00;;;2.51;93.96
72558;BME280;60583;50.094;8.748;2022-11-20T08:15:02;100055.63;;;2.50;94.38
72558;BME280;60583;50.094;8.748;2022-11-20T08:17:28;100065.97;;;2.69;93.98
72558;BME280;60583;50.094;8.748;2022-11-20T08:19:54;100074.03;;;2.76;93.17
72558;BME280;60583;50.094;8.748;2022-11-20T08:22:19;100076.72;;;2.84;93.16
72558;BME280;60583;50.094;8.748;2022-11-20T08:24:45;100078.34;;;2.85;92.75
72558;BME280;60583;50.094;8.748;2022-11-20T08:27:10;100077.06;;;2.89;93.50
72558;BME280;60583;50.094;8.748;2022-11-20T08:29:36;100079.91;;;2.95;93.29
72558;BME280;60583;50.094;8.748;2022-11-20T08:32:01;100072.31;;;2.92;93.04
72558;BME280;60583;50.094;8.748;2022-11-20T08:34:27;100073.78;;;2.87;93.19
72558;BME280;60583;50.094;8.748;2022-11-20T08:36:52;100081.69;;;2.87;92.51
72558;BME280;60583;50.094;8.748;2022-11-20T08:39:17;100087.28;;;2.92;92.92
72558;BME280;60583;50.094;8.748;2022-11-20T08:41:43;100086.97;;;2.95;93.27
72558;BME280;60583;50.094;8.748;2022-11-20T08:44:08;100093.59;;;2.99;94.20
72558;BME280;60583;50.094;8.748;2022-11-20T08:46:39;100098.69;;;3.00;94.47
72558;BME280;60583;50.094;8.748;2022-11-20T08:49:07;100086.19;;;3.02;93.72
72558;BME280;60583;50.094;8.748;2022-11-20T08:51:33;100103.88;;;3.18;93.85
72558;BME280;60583;50.094;8.748;2022-11-20T08:53:59;100104.53;;;3.20;94.04
72558;BME280;60583;50.094;8.748;2022-11-20T08:56:25;100107.84;;;3.22;93.51
72558;BME280;60583;50.094;8.748;2022-11-20T08:58:51;100107.16;;;3.20;93.82
72558;BME280;60583;50.094;8.748;2022-11-20T09:01:18;100110.47;;;3.22;93.33
72558;BME280;60583;50.094;8.748;2022-11-20T09:03:45;100098.00;;;3.32;92.39
72558;BME280;60583;50.094;8.748;2022-11-20T09:06:11;100102.31;;;3.41;92.85
72558;BME280;60583;50.094;8.748;2022-11-20T09:08:37;100092.59;;;3.42;92.02
72558;BME280;60583;50.094;8.748;2022-11-20T09:11:02;100097.06;;;3.49;91.87
72558;BME280;60583;50.094;8.748;2022-11-20T09:13:29;100092.28;;;3.53;91.79
72558;BME280;60583;50.094;8.748;2022-11-20T09:15:56;100097.06;;;3.49;91.75
72558;BME280;60583;50.094;8.748;2022-11-20T09:18:23;100101.03;;;3.53;91.95
72558;BME280;60583;50.094;8.748;2022-11-20T09:20:49;100097.59;;;3.61;92.00
72558;BME280;60583;50.094;8.748;2022-11-20T09:23:15;100097.78;;;3.67;91.76
72558;BME280;60583;50.094;8.748;2022-11-20T09:25:41;100101.91;;;3.78;91.59
72558;BME280;60583;50.094;8.748;2022-11-20T09:28:07;100108.69;;;3.88;90.48
72558;BME280;60583;50.094;8.748;2022-11-20T09:30:32;100102.91;;;3.93;90.20
72558;BME280;60583;50.094;8.748;2022-11-20T09:32:58;100107.72;;;3.98;90.37
72558;BME280;60583;50.094;8.748;2022-11-20T09:35:23;100102.13;;;4.17;90.91
72558;BME280;60583;50.094;8.748;2022-11-20T09:37:48;100106.75;;;4.23;90.45
72558;BME280;60583;50.094;8.748;2022-11-20T09:40:26;100093.38;;;4.40;88.75
72558;BME280;60583;50.094;8.748;2022-11-20T09:46:09;100103.06;;;4.72;87.10
72558;BME280;60583;50.094;8.748;2022-11-20T09:48:52;100099.41;;;4.81;87.43
72558;BME280;60583;50.094;8.748;2022-11-20T09:51:47;100102.53;;;4.93;88.78
72558;BME280;60583;50.094;8.748;2022-11-20T09:54:22;100100.09;;;4.83;88.03
72558;BME280;60583;50.094;8.748;2022-11-20T09:57:03;100088.81;;;4.89;87.36
72558;BME280;60583;50.094;8.748;2022-11-20T09:59:35;100085.84;;;4.92;86.97
72558;BME280;60583;50.094;8.748;2022-11-20T10:02:42;100086.19;;;4.89;88.33
72558;BME280;60583;50.094;8.748;2022-11-20T10:05:09;100088.50;;;4.84;87.51
72558;BME280;60583;50.094;8.748;2022-11-20T10:07:42;100084.25;;;4.83;88.84
72558;BME280;60583;50.094;8.748;2022-11-20T10:10:28;100077.63;;;4.79;87.57
72558;BME280;60583;50.094;8.748;2022-11-20T10:18:15;100073.38;;;4.54;89.26
72558;BME280;60583;50.094;8.748;2022-11-20T10:20:56;100074.34;;;4.77;91.31
72558;BME280;60583;50.094;8.748;2022-11-20T10:23:54;100068.78;;;4.48;88.51
72558;BME280;60583;50.094;8.748;2022-11-20T10:26:37;100066.16;;;4.40;90.13
72558;BME280;60583;50.094;8.748;2022-11-20T10:29:14;100073.06;;;4.49;90.58
72558;BME280;60583;50.094;8.748;2022-11-20T10:31:42;100068.94;;;4.55;90.22
72558;BME280;60583;50.094;8.748;2022-11-20T10:34:26;100076.53;;;4.49;91.19
72558;BME280;60583;50.094;8.748;2022-11-20T10:37:11;100066.81;;;4.50;90.38
72558;BME280;60583;50.094;8.748;2022-11-20T10:39:56;100062.84;;;4.54;89.77
72558;BME280;60583;50.094;8.748;2022-11-20T10:42:37;100074.56;;;4.51;90.09
72558;BME280;60583;50.094;8.748;2022-11-20T10:48:15;100064.84;;;4.36;90.75
72558;BME280;60583;50.094;8.748;2022-11-20T10:54:03;100054.78;;;4.47;90.25
72558;BME280;60583;50.094;8.748;2022-11-20T10:56:41;100051.63;;;4.44;91.10
72558;BME280;60583;50.094;8.748;2022-11-20T11:02:01;100052.63;;;4.43;91.47
72558;BME280;60583;50.094;8.748;2022-11-20T11:04:43;100050.16;;;4.41;90.47
72558;BME280;60583;50.094;8.748;2022-11-20T11:07:15;100044.03;;;4.49;90.40
72558;BME280;60583;50.094;8.748;2022-11-20T11:09:53;100038.41;;;4.52;90.75
72558;BME280;60583;50.094;8.748;2022-11-20T11:12:20;100032.66;;;4.48;90.89
72558;BME280;60583;50.094;8.748;2022-11-20T11:14:57;100033.16;;;4.52;90.16
72558;BME280;60583;50.094;8.748;2022-11-20T11:17:32;100032.13;;;4.61;90.18
72558;BME280;60583;50.094;8.748;2022-11-20T11:22:31;100032.63;;;4.65;90.05
72558;BME280;60583;50.094;8.748;2022-11-20T11:24:57;100035.56;;;4.78;90.28
72558;BME280;60583;50.094;8.748;2022-11-20T11:27:23;100027.44;;;4.87;89.50
72558;BME280;60583;50.094;8.748;2022-11-20T11:29:49;100028.72;;;4.91;89.41
72558;BME280;60583;50.094;8.748;2022-11-20T11:32:18;100032.91;;;4.78;89.54
72558;BME280;60583;50.094;8.748;2022-11-20T11:34:43;100016.56;;;4.74;89.93
72558;BME280;60583;50.094;8.748;2022-11-20T11:37:19;100014.75;;;4.83;90.25
72558;BME280;60583;50.094;8.748;2022-11-20T11:39:47;99999.25;;;4.72;89.75
72558;BME280;60583;50.094;8.748;2022-11-20T11:42:17;100012.94;;;4.75;90.06
72558;BME280;60583;50.094;8.748;2022-11-20T11:44:45;100013.28;;;4.72;90.27
72558;BME280;60583;50.094;8.748;2022-11-20T11:47:57;100015.59;;;4.67;91.25
72558;BME280;60583;50.094;8.748;2022-11-20T11:50:25;100008.97;;;4.71;90.26
72558;BME280;60583;50.094;8.748;2022-11-20T11:53:09;100008.34;;;4.69;90.88
72558;BME280;60583;50.094;8.748;2022-11-20T11:58:17;100004.53;;;4.72;90.58
72558;BME280;60583;50.094;8.748;2022-11-20T12:00:51;100006.34;;;4.71;90.39
72558;BME280;60583;50.094;8.748;2022-11-20T12:03:23;100000.38;;;4.85;90.40
72558;BME280;60583;50.094;8.748;2022-11-20T12:05:57;99999.00;;;4.89;90.10
72558;BME280;60583;50.094;8.748;2022-11-20T12:08:44;99994.34;;;4.99;89.48
72558;BME280;60583;50.094;8.748;2022-11-20T12:11:33;99990.75;;;4.92;89.86
72558;BME280;60583;50.094;8.748;2022-11-20T12:14:09;99991.19;;;5.04;89.48
72558;BME280;60583;50.094;8.748;2022-11-20T12:16:38;99984.69;;;5.14;89.01
72558;BME280;60583;50.094;8.748;2022-11-20T12:19:10;99980.78;;;5.33;88.45
72558;BME280;60583;50.094;8.748;2022-11-20T12:27:05;99981.75;;;5.40;87.97
72558;BME280;60583;50.094;8.748;2022-11-20T12:29:52;99989.81;;;5.39;87.79
72558;BME280;60583;50.094;8.748;2022-11-20T12:32:52;99981.59;;;5.34;88.25
72558;BME280;60583;50.094;8.748;2022-11-20T12:35:41;99979.03;;;5.26;88.82
72558;BME280;60583;50.094;8.748;2022-11-20T12:41:17;99981.38;;;5.21;89.28
72558;BME280;60583;50.094;8.748;2022-11-20T12:47:19;99986.47;;;5.22;88.73
72558;BME280;60583;50.094;8.748;2022-11-20T12:49:57;99972.72;;;5.27;88.61
72558;BME280;60583;50.094;8.748;2022-11-20T12:52:39;99980.00;;;5.25;88.52
72558;BME280;60583;50.094;8.748;2022-11-20T12:55:16;99978.34;;;5.24;88.83
72558;BME280;60583;50.094;8.748;2022-11-20T12:57:54;99978.53;;;5.22;89.28
72558;BME280;60583;50.094;8.748;2022-11-20T13:00:22;99972.91;;;5.25;89.55
72558;BME280;60583;50.094;8.748;2022-11-20T13:06:11;99972.50;;;5.13;89.50
72558;BME280;60583;50.094;8.748;2022-11-20T13:08:40;99965.06;;;5.09;90.16
72558;BME280;60583;50.094;8.748;2022-11-20T13:13:56;99965.22;;;5.15;90.33
72558;BME280;60583;50.094;8.748;2022-11-20T13:18:53;99951.75;;;5.02;91.38
72558;BME280;60583;50.094;8.748;2022-11-20T13:21:21;99955.81;;;4.82;92.81
72558;BME280;60583;50.094;8.748;2022-11-20T13:23:47;99948.19;;;4.87;92.39
72558;BME280;60583;50.094;8.748;2022-11-20T13:26:21;99943.13;;;4.78;92.76
72558;BME280;60583;50.094;8.748;2022-11-20T13:29:00;99937.53;;;4.73;93.24
72558;BME280;60583;50.094;8.748;2022-11-20T13:31:32;99936.03;;;4.78;93.43
72558;BME280;60583;50.094;8.748;2022-11-20T13:34:00;99934.78;;;4.89;93.34
72558;BME280;60583;50.094;8.748;2022-11-20T13:36:28;99929.97;;;5.00;92.38
72558;BME280;60583;50.094;8.748;2022-11-20T13:38:55;99923.25;;;4.90;92.94
72558;BME280;60583;50.094;8.748;2022-11-20T13:41:36;99917.06;;;4.75;93.27
72558;BME280;60583;50.094;8.748;2022-11-20T13:46:42;99920.63;;;4.82;92.72
72558;BME280;60583;50.094;8.748;2022-11-20T13:49:26;99921.34;;;4.76;93.08
72558;BME280;60583;50.094;8.748;2022-11-20T13:57:36;99914.91;;;4.78;92.41
72558;BME280;60583;50.094;8.748;2022-11-20T14:02:38;99914.03;;;4.86;92.60
72558;BME280;60583;50.094;8.748;2022-11-20T14:05:05;99907.31;;;4.75;94.27
72558;BME280;60583;50.094;8.748;2022-11-20T14:07:42;99908.94;;;4.76;94.30
72558;BME280;60583;50.094;8.748;2022-11-20T14:10:26;99909.09;;;4.83;93.76